Table of current weather in Finland weather stations (FMI)

Data updated at Finland time 13.07.2020 02:15   Click the links in "Station" for forecasts

Station
 
Station name
 
 Loc 
 
Observed
 
Temp.
°C
Wind
m/s
From
 
Windchill
°C
Gusts
m/s
Humidity
%
Air pressure
hPa
Clouds
 
Conditions
 
Precip.
mm/1h
Snow
cm
100968 Helsinki-Vantaa Map 13.07 02:00 11.6 2.4 SW 10.8 3.3 96.0 1016.0 clear sky (0/8) 0.0
100971 Helsinki/Kaisaniemi Map 13.07 02:00 13.7 2.6 SW 13.1 3.8 93.0 1016.1 mostly clear (1/8) 0.0
100996 Helsinki/Harmaja Map 13.07 02:00 13.0 6.7 SW 10.9 7.6 97.0 1016.6 clear sky (0/8)
874863 Espoo/Tapiola Map 13.07 02:00 12.2 3.4 SW 10.9 4.6 98.0 1016.1 clear sky (0/8) 0.0
852678 Espoo/Nuuksio Map 13.07 02:00 9.5 1.0 SW 9.5 2.0 99.0 1016.1 clear sky (0/8) 0.0
151029 Mariehamn Map 13.07 02:00 13.5 1.6 NW 13.5 2.6 84.0 1016.1
100908 Utö Map 13.07 02:00 14.1 4.9 W 12.7 5.8 86.0 1016.3 partly cloudy (4/8) 0.0
100949 Turku/Artukainen Map 13.07 02:00 11.3 1.1 NW 11.3 1.7 94.0 1015.9 partly cloudy (5/8) 0.0
101247 Lappeenranta/Lepola Map 13.07 02:00 12.1 87.0 1015.4 light clouds (2/8) 0.0
101124 Tampere/Härmälä Map 13.07 02:00 9.5 99.0 1015.2 mostly cloudy (6/8) 0.0
101339 Jyväskylä/Airport Map 13.07 02:00 9.2 1.0 S 9.2 1.5 95.0 1014.4 partly cloudy (5/8) 0.0
101632 Joensuu/Linnunlahti Map 13.07 02:00 11.4 87.0 1014.6 clear sky (0/8) 0.0
101586 Kuopio/Savilahti Map 13.07 02:00 10.8 0.8 S 10.8 2.4 94.0 1013.6 clear sky (0/8) 0.0
101485 Vaasa/Kemettilä Map 13.07 02:00 12.3 2.9 NW 11.3 4.1 77.0 1013.8 cloudy (7/8) 0.0
126736 Kajaani/Petäisenniska Map 13.07 02:00 11.4 1.6 NE 11.1 2.9 95.0 1013.6 cloudy (7/8) Rain showers, slight 0.1
101773 Kuhmo/Kalliojoki Map 13.07 02:00 8.7 calm 0.4 97.0 1014.4 mostly clear (1/8) 0.0
101799 Oulu/Oulunsalo Map 13.07 02:00 11.9 0.8 E 11.9 1.5 98.0 1013.2 cloudy (7/8) Rain 0.2
101831 Puolanka Map 13.07 02:00 10.3 1.5 NE 10.0 3.1 90.0 0.0
107081 Kuusamo/Välikangas Map 13.07 02:00 10.7 86.0 0.0
101920 Rovaniemi/Airport Map 13.07 02:00 10.7 95.0 Rain Rain 0.0
101966 Salla/Naruska Map 13.07 02:00 5.0 0.9 4.9 2.0 100.0 1017.0 0.0
101994 Kittilä/Pokka Map 13.07 02:00 5.9 1.7 E 4.7 2.2 97.0 mostly clear (1/8) 0.0
102019 Enontekiö/Näkkälä Map 13.07 02:00 8.7 1.4 8.3 1.8 99.0 1016.0 overcast (8/8) 0.0
102052 Ivalo Map 13.07 02:00 6.2 2.4 E 4.4 3.3 98.0 1017.6 clear sky (0/8) 0.0
102016 Enontekiö/Kilpisjärvi Map 13.07 02:00 8.5 3.0 6.7 5.0 93.0 1016.6 mostly cloudy (6/8) 0.0
102035 Utsjoki/Kevo Map 13.07 02:00 8.4 2.0 SE 7.3 3.7 91.0 1018.0 clear sky (0/8) 0.0